createdAt,value
2023-02-12T00:02:31.348Z,21.70
2023-02-12T00:05:37.537Z,21.63
2023-02-12T00:08:41.016Z,21.40
2023-02-12T00:11:43.477Z,22.90
2023-02-12T00:14:45.820Z,21.62
2023-02-12T00:17:48.259Z,22.80
2023-02-12T00:20:50.794Z,21.47
2023-02-12T00:23:53.105Z,20.08
2023-02-12T00:26:55.536Z,24.70
2023-02-12T00:30:01.725Z,22.55
2023-02-12T00:33:04.356Z,23.07
2023-02-12T00:36:08.323Z,22.53
2023-02-12T00:39:11.654Z,21.25
2023-02-12T00:42:13.967Z,22.50
2023-02-12T00:45:16.714Z,19.73
2023-02-12T00:48:19.103Z,19.97
2023-02-12T00:51:21.709Z,21.70
2023-02-12T00:54:23.875Z,21.77
2023-02-12T00:57:26.183Z,21.92
2023-02-12T01:00:28.527Z,21.83
2023-02-12T01:03:31.131Z,21.53
2023-02-12T01:06:33.523Z,20.30
2023-02-12T01:09:35.938Z,21.60
2023-02-12T01:12:38.284Z,22.55
2023-02-12T01:15:42.359Z,20.70
2023-02-12T01:18:45.683Z,18.23
2023-02-12T01:21:48.250Z,19.13
2023-02-12T01:24:50.712Z,19.30
2023-02-12T01:27:56.218Z,18.73
2023-02-12T01:30:58.682Z,17.30
2023-02-12T01:34:01.704Z,18.10
2023-02-12T01:37:04.727Z,18.70
2023-02-12T01:40:10.289Z,20.50
2023-02-12T01:43:13.429Z,20.00
2023-02-12T01:46:16.114Z,18.05
2023-02-12T01:49:26.917Z,18.30
2023-02-12T01:52:33.042Z,19.87
2023-02-12T01:55:35.835Z,18.33
2023-02-12T01:58:41.713Z,18.37
2023-02-12T02:01:44.892Z,20.12
2023-02-12T02:04:52.663Z,19.90
2023-02-12T02:07:55.168Z,21.03
2023-02-12T02:10:57.456Z,18.98
2023-02-12T02:14:18.891Z,20.37
2023-02-12T02:17:42.674Z,18.52
2023-02-12T02:21:12.111Z,20.57
2023-02-12T02:24:35.808Z,18.90
2023-02-12T02:27:59.440Z,19.37
2023-02-12T02:31:17.557Z,21.05
2023-02-12T02:34:29.875Z,20.62
2023-02-12T02:38:00.570Z,20.40
2023-02-12T02:41:26.335Z,20.43
2023-02-12T02:44:47.529Z,20.58
2023-02-12T02:48:00.620Z,19.33
2023-02-12T02:51:14.655Z,18.42
2023-02-12T02:54:26.341Z,20.23
2023-02-12T02:57:39.297Z,20.13
2023-02-12T03:00:56.257Z,19.92
2023-02-12T03:04:33.177Z,19.30
2023-02-12T03:07:42.054Z,19.05
2023-02-12T03:10:50.126Z,20.87
2023-02-12T03:14:07.568Z,19.50
2023-02-12T03:17:16.367Z,20.17
2023-02-12T03:20:29.696Z,20.67
2023-02-12T03:23:40.716Z,19.95
2023-02-12T03:26:48.728Z,19.33
2023-02-12T03:29:52.294Z,18.63
2023-02-12T03:33:06.777Z,20.00
2023-02-12T03:36:20.412Z,19.70
2023-02-12T03:40:02.671Z,19.35
2023-02-12T03:43:23.788Z,18.60
2023-02-12T03:46:52.481Z,19.50
2023-02-12T03:50:10.069Z,18.33
2023-02-12T03:53:12.904Z,18.80
2023-02-12T03:56:24.276Z,17.95
2023-02-12T03:59:27.070Z,18.77
2023-02-12T04:02:29.617Z,19.63
2023-02-12T04:05:32.178Z,17.52
2023-02-12T04:08:34.832Z,17.15
2023-02-12T04:12:10.294Z,16.87
2023-02-12T04:15:21.529Z,18.13
2023-02-12T04:18:45.038Z,16.80
2023-02-12T04:22:23.591Z,10.80
2023-02-12T04:25:25.915Z,15.05
2023-02-12T04:28:37.834Z,14.43
2023-02-12T04:31:48.737Z,13.47
2023-02-12T04:35:03.106Z,12.27
2023-02-12T04:38:14.052Z,12.05
2023-02-12T04:41:16.444Z,11.27
2023-02-12T04:44:24.521Z,10.20
2023-02-12T04:47:26.841Z,10.17
2023-02-12T04:50:41.009Z,11.03
2023-02-12T04:53:43.337Z,9.43
2023-02-12T04:56:46.366Z,8.48
2023-02-12T04:59:48.795Z,10.38
2023-02-12T05:02:51.056Z,11.37
2023-02-12T05:05:53.551Z,10.40
2023-02-12T05:08:57.512Z,10.48
2023-02-12T05:11:59.837Z,10.73
2023-02-12T05:15:02.342Z,11.35
2023-02-12T05:18:04.840Z,10.40
2023-02-12T05:21:07.305Z,10.80
2023-02-12T05:24:09.808Z,10.93
2023-02-12T05:27:12.409Z,10.10
2023-02-12T05:30:14.932Z,10.20
2023-02-12T05:33:17.260Z,10.10
2023-02-12T05:36:23.515Z,10.07
2023-02-12T05:39:26.044Z,9.13
2023-02-12T05:42:29.836Z,7.37
2023-02-12T05:45:33.420Z,9.00
2023-02-12T05:48:36.589Z,7.53
2023-02-12T05:51:39.580Z,7.00
2023-02-12T05:54:42.029Z,7.40
2023-02-12T05:57:44.377Z,6.03
2023-02-12T06:00:46.744Z,6.03
2023-02-12T06:03:49.432Z,6.97
2023-02-12T06:06:52.788Z,7.53
2023-02-12T06:09:57.816Z,5.72
2023-02-12T06:13:00.200Z,5.60
2023-02-12T06:16:02.927Z,5.80
2023-02-12T06:19:06.555Z,5.97
2023-02-12T06:22:08.945Z,6.10
2023-02-12T06:25:11.227Z,5.65
2023-02-12T06:28:13.579Z,6.07
2023-02-12T06:31:21.454Z,4.82
2023-02-12T06:34:23.796Z,5.23
2023-02-12T06:37:26.312Z,5.00
2023-02-12T06:40:28.866Z,4.43
2023-02-12T06:43:31.284Z,5.10
2023-02-12T06:46:33.764Z,5.22
2023-02-12T06:49:36.134Z,4.17
2023-02-12T06:52:38.538Z,3.70
2023-02-12T06:55:41.985Z,4.50
2023-02-12T06:58:46.921Z,6.12
2023-02-12T07:01:49.229Z,5.12
2023-02-12T07:04:51.590Z,3.87
2023-02-12T07:07:54.006Z,5.70
2023-02-12T07:10:56.298Z,6.20
2023-02-12T07:13:59.056Z,4.60
2023-02-12T07:17:05.050Z,5.93
2023-02-12T07:20:08.330Z,3.97
2023-02-12T07:23:13.881Z,5.90
2023-02-12T07:26:16.813Z,5.28
2023-02-12T07:29:19.158Z,5.93
2023-02-12T07:32:21.497Z,5.95
2023-02-12T07:35:23.788Z,6.00
2023-02-12T07:38:26.068Z,5.83
2023-02-12T07:41:30.669Z,4.90
2023-02-12T07:44:34.571Z,5.43
2023-02-12T07:47:38.728Z,5.95
2023-02-12T07:50:41.064Z,5.93
2023-02-12T07:53:43.801Z,5.20
2023-02-12T07:56:47.534Z,5.82
2023-02-12T07:59:49.976Z,4.57
2023-02-12T08:02:55.672Z,5.37
2023-02-12T08:05:58.302Z,5.10
2023-02-12T08:09:04.256Z,3.73
2023-02-12T08:12:06.929Z,5.40
2023-02-12T08:15:09.623Z,3.58
2023-02-12T08:18:11.987Z,3.58
2023-02-12T08:21:17.973Z,2.77
2023-02-12T08:24:22.373Z,2.57
2023-02-12T08:27:24.791Z,3.75
2023-02-12T08:30:28.356Z,3.97
2023-02-12T08:33:33.690Z,3.50
2023-02-12T08:36:40.413Z,3.47
2023-02-12T08:39:42.985Z,3.23
2023-02-12T08:42:45.334Z,4.10
2023-02-12T08:45:47.714Z,3.12
2023-02-12T08:48:54.884Z,4.65
2023-02-12T08:51:59.134Z,3.10
2023-02-12T08:55:01.839Z,3.37
2023-02-12T08:58:04.359Z,4.15
2023-02-12T09:01:12.068Z,4.28
2023-02-12T09:04:23.997Z,3.45
2023-02-12T09:07:26.956Z,4.60
2023-02-12T09:10:29.304Z,4.03
2023-02-12T09:13:33.345Z,3.85
2023-02-12T09:16:37.583Z,4.32
2023-02-12T09:19:40.129Z,3.55
2023-02-12T09:22:43.028Z,4.43
2023-02-12T09:25:46.964Z,3.03
2023-02-12T09:28:50.980Z,3.35
2023-02-12T09:31:54.267Z,2.30
2023-02-12T09:34:57.108Z,3.72
2023-02-12T09:37:59.458Z,3.43
2023-02-12T09:41:39.286Z,4.20
2023-02-12T09:45:07.926Z,3.75
2023-02-12T09:48:31.091Z,3.20
2023-02-12T09:51:33.693Z,3.15
2023-02-12T09:54:39.842Z,3.73
2023-02-12T09:57:43.007Z,4.13
2023-02-12T10:00:46.424Z,3.30
2023-02-12T10:03:51.877Z,4.15
2023-02-12T10:07:07.671Z,2.65
2023-02-12T10:10:32.329Z,3.40
2023-02-12T10:14:01.790Z,3.93
2023-02-12T10:17:35.370Z,3.47
2023-02-12T10:20:43.580Z,4.35
2023-02-12T10:24:06.712Z,4.32
2023-02-12T10:27:19.288Z,2.40
2023-02-12T10:30:41.111Z,3.47
2023-02-12T10:33:49.752Z,3.47
2023-02-12T10:36:58.631Z,4.25
2023-02-12T10:40:32.857Z,3.15
2023-02-12T10:43:35.655Z,3.10
2023-02-12T10:46:39.107Z,2.73
2023-02-12T10:49:42.243Z,3.15
2023-02-12T10:52:55.247Z,2.35
2023-02-12T10:56:13.138Z,2.20
2023-02-12T10:59:24.394Z,3.07
2023-02-12T11:02:30.794Z,2.53
2023-02-12T11:05:37.318Z,2.80
2023-02-12T11:08:41.382Z,3.35
2023-02-12T11:11:44.186Z,3.62
2023-02-12T11:14:59.207Z,4.20
2023-02-12T11:18:05.738Z,4.70
2023-02-12T11:21:10.975Z,4.72
2023-02-12T11:24:38.849Z,4.80
2023-02-12T11:27:45.156Z,4.10
2023-02-12T11:30:59.110Z,3.90
2023-02-12T11:34:04.795Z,3.17
2023-02-12T11:37:17.749Z,2.70
2023-02-12T11:40:48.478Z,2.95
2023-02-12T11:43:52.192Z,3.35
2023-02-12T11:47:04.058Z,3.00
2023-02-12T11:50:31.844Z,1.50
2023-02-12T11:53:40.884Z,3.33
2023-02-12T11:56:47.008Z,2.75
2023-02-12T11:59:50.225Z,2.70
2023-02-12T12:03:28.323Z,2.13
2023-02-12T12:06:46.742Z,2.00
2023-02-12T12:10:13.886Z,2.00
2023-02-12T12:13:28.701Z,2.62
2023-02-12T12:17:03.866Z,2.42
2023-02-12T12:20:30.000Z,2.63
2023-02-12T12:23:37.940Z,2.03
2023-02-12T12:26:42.938Z,2.67
2023-02-12T12:29:57.940Z,2.85
2023-02-12T12:33:05.459Z,2.60
2023-02-12T12:36:16.838Z,1.97
2023-02-12T12:39:27.249Z,3.53
2023-02-12T12:43:07.511Z,2.08
2023-02-12T12:46:41.461Z,1.77
2023-02-12T12:50:25.553Z,2.90
2023-02-12T12:53:46.993Z,2.83
2023-02-12T12:57:10.711Z,2.30
2023-02-12T13:00:51.124Z,1.48
2023-02-12T13:04:36.578Z,1.75
2023-02-12T13:07:47.531Z,1.65
2023-02-12T13:11:01.452Z,1.37
2023-02-12T13:14:25.957Z,1.97
2023-02-12T13:18:09.355Z,1.62
2023-02-12T13:21:34.640Z,2.40
2023-02-12T13:25:03.347Z,1.58
2023-02-12T13:28:12.980Z,2.00
2023-02-12T13:31:37.018Z,2.37
2023-02-12T13:34:43.446Z,1.77
2023-02-12T13:37:57.519Z,1.85
2023-02-12T13:41:07.645Z,1.15
2023-02-12T13:44:17.170Z,1.70
2023-02-12T13:48:25.585Z,1.43
2023-02-12T13:51:39.917Z,1.65
2023-02-12T13:54:55.722Z,2.95
2023-02-12T13:58:31.574Z,2.53
2023-02-12T14:01:45.850Z,2.47
2023-02-12T14:05:03.842Z,2.13
2023-02-12T14:08:08.481Z,2.53
2023-02-12T14:11:21.264Z,1.92
2023-02-12T14:14:33.329Z,2.80
2023-02-12T14:17:38.498Z,1.87
2023-02-12T14:20:44.176Z,2.97
2023-02-12T14:23:48.244Z,1.67
2023-02-12T14:26:52.351Z,2.37
2023-02-12T14:30:32.561Z,2.47
2023-02-12T14:33:36.255Z,1.30
2023-02-12T14:36:44.366Z,1.40
2023-02-12T14:39:49.528Z,1.85
2023-02-12T14:42:57.605Z,1.85
2023-02-12T14:46:25.867Z,2.20
2023-02-12T14:49:36.857Z,1.30
2023-02-12T14:52:50.885Z,1.93
2023-02-12T14:55:54.823Z,1.50
2023-02-12T14:59:04.316Z,1.83
2023-02-12T15:02:15.131Z,2.95
2023-02-12T15:05:27.038Z,1.90
2023-02-12T15:08:51.831Z,2.57
2023-02-12T15:12:11.245Z,2.70
2023-02-12T15:15:45.987Z,1.48
2023-02-12T15:19:00.025Z,2.37
2023-02-12T15:22:03.974Z,2.47
2023-02-12T15:25:30.827Z,2.27
2023-02-12T15:28:38.349Z,2.33
2023-02-12T15:31:42.896Z,3.00
2023-02-12T15:34:50.744Z,2.33
2023-02-12T15:37:56.351Z,2.90
2023-02-12T15:41:02.359Z,3.30
2023-02-12T15:44:22.738Z,3.80
2023-02-12T15:47:28.546Z,3.30
2023-02-12T15:50:34.122Z,2.80
2023-02-12T15:53:40.855Z,3.20
2023-02-12T15:56:44.859Z,2.93
2023-02-12T15:59:57.750Z,3.03
2023-02-12T16:03:01.580Z,2.78
2023-02-12T16:06:13.926Z,3.05
2023-02-12T16:09:29.499Z,3.00
2023-02-12T16:12:38.240Z,3.30
2023-02-12T16:15:43.599Z,2.83
2023-02-12T16:19:03.648Z,3.10
2023-02-12T16:22:15.042Z,3.00
2023-02-12T16:25:26.317Z,3.90
2023-02-12T16:28:32.910Z,4.13
2023-02-12T16:31:37.393Z,3.85
2023-02-12T16:34:42.535Z,3.78
2023-02-12T16:37:51.609Z,4.50
2023-02-12T16:41:21.593Z,4.70
2023-02-12T16:44:33.175Z,4.80
2023-02-12T16:47:37.403Z,4.82
2023-02-12T16:50:51.068Z,5.12
2023-02-12T16:53:58.245Z,4.10
2023-02-12T16:57:03.450Z,4.80
2023-02-12T17:00:10.806Z,5.07
2023-02-12T17:03:17.610Z,4.40
2023-02-12T17:06:25.587Z,5.00
2023-02-12T17:09:30.480Z,2.92
2023-02-12T17:12:34.439Z,3.50
2023-02-12T17:15:44.869Z,3.67
2023-02-12T17:18:48.642Z,4.00
2023-02-12T17:21:52.622Z,4.12
2023-02-12T17:24:56.158Z,4.37
2023-02-12T17:28:01.447Z,4.60
2023-02-12T17:31:07.851Z,2.90
2023-02-12T17:34:12.977Z,3.12
2023-02-12T17:37:17.965Z,3.83
2023-02-12T17:40:22.359Z,3.92
2023-02-12T17:43:26.550Z,4.33
2023-02-12T17:46:31.056Z,3.83
2023-02-12T17:49:36.137Z,4.25
2023-02-12T17:52:43.230Z,3.87
2023-02-12T17:55:47.716Z,4.00
2023-02-12T17:58:51.636Z,5.13
2023-02-12T18:01:57.714Z,5.37
2023-02-12T18:05:01.647Z,5.40
2023-02-12T18:08:07.310Z,5.22
2023-02-12T18:11:12.895Z,5.70
2023-02-12T18:14:18.782Z,6.13
2023-02-12T18:17:23.043Z,7.20
2023-02-12T18:20:29.125Z,6.05
2023-02-12T18:23:36.249Z,7.20
2023-02-12T18:26:40.422Z,5.50
2023-02-12T18:29:44.723Z,4.50
2023-02-12T18:32:48.879Z,4.03
2023-02-12T18:36:10.660Z,4.47
2023-02-12T18:39:19.579Z,4.37
2023-02-12T18:42:24.449Z,5.15
2023-02-12T18:45:29.701Z,5.43
2023-02-12T18:48:34.615Z,5.30
2023-02-12T18:51:41.828Z,6.55
2023-02-12T18:54:49.577Z,7.00
2023-02-12T18:57:54.566Z,5.97
2023-02-12T19:00:59.454Z,5.53
2023-02-12T19:04:07.571Z,6.27
2023-02-12T19:07:13.343Z,5.60
2023-02-12T19:10:22.932Z,6.85
2023-02-12T19:13:27.264Z,6.32
2023-02-12T19:16:34.303Z,7.03
2023-02-12T19:19:39.202Z,6.40
2023-02-12T19:22:48.408Z,6.40
2023-02-12T19:25:52.793Z,6.35
2023-02-12T19:28:59.670Z,7.15
2023-02-12T19:32:05.392Z,6.70
2023-02-12T19:35:09.488Z,6.43
2023-02-12T19:38:13.181Z,5.90
2023-02-12T19:41:20.212Z,5.55
2023-02-12T19:44:29.284Z,5.82
2023-02-12T19:47:35.640Z,6.87
2023-02-12T19:50:46.984Z,6.47
2023-02-12T19:53:59.512Z,6.57
2023-02-12T19:57:09.328Z,7.45
2023-02-12T20:00:14.368Z,6.55
2023-02-12T20:03:20.817Z,6.67
2023-02-12T20:06:31.050Z,6.27
2023-02-12T20:09:36.061Z,6.65
2023-02-12T20:12:43.776Z,6.68
2023-02-12T20:15:48.786Z,6.85
2023-02-12T20:18:56.726Z,7.30
2023-02-12T20:22:05.540Z,7.00
2023-02-12T20:25:09.895Z,7.28
2023-02-12T20:28:13.968Z,6.45
2023-02-12T20:31:29.124Z,7.47
2023-02-12T20:34:45.761Z,7.23
2023-02-12T20:38:07.913Z,6.83
2023-02-12T20:41:14.040Z,6.85
2023-02-12T20:44:21.803Z,8.25
2023-02-12T20:47:34.241Z,7.45
2023-02-12T20:50:38.894Z,7.33
2023-02-12T20:53:44.367Z,7.43
2023-02-12T20:56:49.804Z,6.90
2023-02-12T20:59:57.462Z,7.78
2023-02-12T21:03:04.570Z,6.72
2023-02-12T21:06:10.180Z,7.00
2023-02-12T21:09:15.175Z,7.93
2023-02-12T21:12:20.217Z,7.30
2023-02-12T21:15:25.290Z,7.70
2023-02-12T21:18:33.451Z,7.65
2023-02-12T21:21:40.247Z,7.23
2023-02-12T21:24:43.997Z,7.80
2023-02-12T21:27:47.381Z,8.27
2023-02-12T21:30:50.709Z,7.35
2023-02-12T21:33:59.887Z,7.28
2023-02-12T21:37:05.301Z,7.87
2023-02-12T21:40:10.860Z,7.87
2023-02-12T21:43:14.213Z,7.28
2023-02-12T21:46:18.662Z,8.32
2023-02-12T21:49:28.703Z,8.93
2023-02-12T21:52:32.012Z,8.13
2023-02-12T21:55:38.194Z,8.10
2023-02-12T21:58:41.222Z,8.07
2023-02-12T22:01:49.862Z,8.75
2023-02-12T22:04:54.832Z,8.07
2023-02-12T22:07:57.372Z,7.30
2023-02-12T22:11:06.704Z,7.63
2023-02-12T22:14:13.003Z,8.20
2023-02-12T22:17:15.492Z,7.68
2023-02-12T22:20:18.657Z,8.32
2023-02-12T22:23:20.953Z,7.43
2023-02-12T22:26:28.752Z,6.90
2023-02-12T22:29:31.300Z,6.75
2023-02-12T22:32:33.930Z,6.93
2023-02-12T22:35:36.340Z,7.15
2023-02-12T22:38:39.870Z,6.80
2023-02-12T22:41:42.768Z,6.97
2023-02-12T22:44:45.143Z,7.45
2023-02-12T22:47:47.449Z,7.43
2023-02-12T22:50:49.772Z,8.60
2023-02-12T22:53:52.228Z,8.60
2023-02-12T22:56:54.633Z,8.70
2023-02-12T22:59:56.973Z,8.77
2023-02-12T23:02:59.410Z,8.90
2023-02-12T23:06:02.770Z,10.05
2023-02-12T23:09:05.423Z,8.53
2023-02-12T23:12:09.750Z,9.57
2023-02-12T23:15:12.110Z,10.00
2023-02-12T23:18:15.642Z,9.88
2023-02-12T23:21:18.054Z,10.60
2023-02-12T23:24:20.437Z,10.43
2023-02-12T23:27:22.804Z,10.40
2023-02-12T23:30:25.132Z,10.63
2023-02-12T23:33:27.751Z,9.98
2023-02-12T23:36:30.157Z,9.38
2023-02-12T23:39:32.477Z,11.20
2023-02-12T23:42:34.854Z,9.73
2023-02-12T23:45:37.242Z,11.85
2023-02-12T23:48:39.688Z,11.57
2023-02-12T23:51:42.066Z,11.50
2023-02-12T23:54:44.370Z,13.73
2023-02-12T23:57:47.670Z,10.97
